createdAt,value
2023-01-20T00:01:48.032Z,37.47
2023-01-20T00:04:18.987Z,38.38
2023-01-20T00:06:47.741Z,36.35
2023-01-20T00:09:19.669Z,33.33
2023-01-20T00:11:48.462Z,32.08
2023-01-20T00:14:17.663Z,34.97
2023-01-20T00:16:46.099Z,30.05
2023-01-20T00:19:15.786Z,31.40
2023-01-20T00:21:44.237Z,29.42
2023-01-20T00:24:12.951Z,30.73
2023-01-20T00:26:43.034Z,32.35
2023-01-20T00:29:11.715Z,32.45
2023-01-20T00:31:40.335Z,30.23
2023-01-20T00:34:10.747Z,31.33
2023-01-20T00:36:39.562Z,33.85
2023-01-20T00:39:07.913Z,32.75
2023-01-20T00:41:36.402Z,32.15
2023-01-20T00:44:06.744Z,30.73
2023-01-20T00:46:35.000Z,34.83
2023-01-20T00:49:03.588Z,30.70
2023-01-20T00:51:31.976Z,33.35
2023-01-20T00:54:00.359Z,35.70
2023-01-20T00:56:29.028Z,32.25
2023-01-20T00:58:57.349Z,33.75
2023-01-20T01:01:27.248Z,32.42
2023-01-20T01:03:55.827Z,34.40
2023-01-20T01:06:24.440Z,33.92
2023-01-20T01:08:53.035Z,34.17
2023-01-20T01:11:21.505Z,37.42
2023-01-20T01:13:49.879Z,34.75
2023-01-20T01:16:18.198Z,33.30
2023-01-20T01:18:48.078Z,38.47
2023-01-20T01:21:18.295Z,37.63
2023-01-20T01:23:46.792Z,39.97
2023-01-20T01:26:16.144Z,32.75
2023-01-20T01:28:44.788Z,37.53
2023-01-20T01:31:13.271Z,38.47
2023-01-20T01:33:41.984Z,35.72
2023-01-20T01:36:15.659Z,41.28
2023-01-20T01:38:44.194Z,39.17
2023-01-20T01:41:15.133Z,36.15
2023-01-20T01:44:03.433Z,41.45
2023-01-20T01:46:31.793Z,36.10
2023-01-20T01:49:02.338Z,41.70
2023-01-20T01:51:37.225Z,40.63
2023-01-20T01:54:10.966Z,42.72
2023-01-20T01:56:41.716Z,39.15
2023-01-20T01:59:16.246Z,40.17
2023-01-20T02:01:50.745Z,40.10
2023-01-20T02:04:22.234Z,39.53
2023-01-20T02:06:55.877Z,42.65
2023-01-20T02:09:26.444Z,38.42
2023-01-20T02:11:58.098Z,38.45
2023-01-20T02:14:32.521Z,39.67
2023-01-20T02:17:06.940Z,41.40
2023-01-20T02:20:07.691Z,40.35
2023-01-20T02:22:45.190Z,39.40
2023-01-20T02:26:12.671Z,35.95
2023-01-20T02:29:25.106Z,38.53
2023-01-20T02:32:26.549Z,38.25
2023-01-20T02:35:01.974Z,42.85
2023-01-20T02:37:37.215Z,36.85
2023-01-20T02:40:20.238Z,41.85
2023-01-20T02:42:58.923Z,42.00
2023-01-20T02:45:33.925Z,39.03
2023-01-20T02:48:10.809Z,39.10
2023-01-20T02:50:47.353Z,42.00
2023-01-20T02:53:18.027Z,40.40
2023-01-20T02:55:50.234Z,39.65
2023-01-20T02:58:25.428Z,47.13
2023-01-20T03:00:58.806Z,42.20
2023-01-20T03:03:34.578Z,47.92
2023-01-20T03:06:09.012Z,44.75
2023-01-20T03:08:40.063Z,47.45
2023-01-20T03:11:10.578Z,46.40
2023-01-20T03:13:47.251Z,48.55
2023-01-20T03:16:20.140Z,44.95
2023-01-20T03:18:51.053Z,48.67
2023-01-20T03:21:20.431Z,46.55
2023-01-20T03:23:51.958Z,45.80
2023-01-20T03:26:23.522Z,44.75
2023-01-20T03:28:53.498Z,45.78
2023-01-20T03:31:27.521Z,46.85
2023-01-20T03:34:01.241Z,49.00
2023-01-20T03:36:32.111Z,45.50
2023-01-20T03:39:01.636Z,39.35
2023-01-20T03:41:43.674Z,45.30
2023-01-20T03:44:20.873Z,42.47
2023-01-20T03:46:55.048Z,47.65
2023-01-20T03:49:34.097Z,40.28
2023-01-20T03:52:08.647Z,44.88
2023-01-20T03:54:46.093Z,45.42
2023-01-20T03:57:20.881Z,46.13
2023-01-20T03:59:52.393Z,41.35
2023-01-20T04:02:21.927Z,44.35
2023-01-20T04:04:54.283Z,39.40
2023-01-20T04:07:26.339Z,41.28
2023-01-20T04:10:01.962Z,31.40
2023-01-20T04:12:30.759Z,35.20
2023-01-20T04:15:02.097Z,37.67
2023-01-20T04:17:31.127Z,37.90
2023-01-20T04:20:05.476Z,36.13
2023-01-20T04:22:40.458Z,37.65
2023-01-20T04:25:16.425Z,38.40
2023-01-20T04:27:44.784Z,34.17
2023-01-20T04:30:15.799Z,38.08
2023-01-20T04:32:44.316Z,35.78
2023-01-20T04:35:17.192Z,38.65
2023-01-20T04:37:46.015Z,33.17
2023-01-20T04:40:15.034Z,38.55
2023-01-20T04:42:43.912Z,35.72
2023-01-20T04:45:17.315Z,35.65
2023-01-20T04:47:46.174Z,31.20
2023-01-20T04:50:16.861Z,33.30
2023-01-20T04:52:45.730Z,39.03
2023-01-20T04:55:14.982Z,33.60
2023-01-20T04:57:43.780Z,42.85
2023-01-20T05:00:18.678Z,38.05
2023-01-20T05:02:47.616Z,37.13
2023-01-20T05:05:18.052Z,38.08
2023-01-20T05:07:46.562Z,41.63
2023-01-20T05:10:15.028Z,38.13
2023-01-20T05:12:43.592Z,40.20
2023-01-20T05:15:12.920Z,40.72
2023-01-20T05:17:41.781Z,39.15
2023-01-20T05:20:12.597Z,36.50
2023-01-20T05:22:43.067Z,43.25
2023-01-20T05:25:11.697Z,39.92
2023-01-20T05:27:40.325Z,41.38
2023-01-20T05:30:10.782Z,44.38
2023-01-20T05:32:38.975Z,38.97
2023-01-20T05:35:11.369Z,40.33
2023-01-20T05:37:41.178Z,39.58
2023-01-20T05:40:11.779Z,42.83
2023-01-20T05:42:40.789Z,43.58
2023-01-20T05:45:10.476Z,42.25
2023-01-20T05:47:38.906Z,41.65
2023-01-20T05:50:08.874Z,43.88
2023-01-20T05:52:37.188Z,37.72
2023-01-20T05:55:07.689Z,43.50
2023-01-20T05:57:36.145Z,40.95
2023-01-20T06:00:07.932Z,40.10
2023-01-20T06:02:37.257Z,41.17
2023-01-20T06:05:06.827Z,42.47
2023-01-20T06:07:35.354Z,38.10
2023-01-20T06:10:03.883Z,42.00
2023-01-20T06:12:33.882Z,50.35
2023-01-20T06:15:02.419Z,40.83
2023-01-20T06:17:31.174Z,41.92
2023-01-20T06:20:00.467Z,45.00
2023-01-20T06:22:29.025Z,40.95
2023-01-20T06:24:58.073Z,45.58
2023-01-20T06:27:26.287Z,40.20
2023-01-20T06:29:56.491Z,37.78
2023-01-20T06:32:25.056Z,44.35
2023-01-20T06:34:54.012Z,42.72
2023-01-20T06:37:22.524Z,42.47
2023-01-20T06:39:51.223Z,44.35
2023-01-20T06:42:19.613Z,39.50
2023-01-20T06:44:48.164Z,41.50
2023-01-20T06:47:17.978Z,39.25
2023-01-20T06:49:47.916Z,39.50
2023-01-20T06:52:18.048Z,41.75
2023-01-20T06:54:46.475Z,39.55
2023-01-20T06:57:14.882Z,39.13
2023-01-20T06:59:43.122Z,39.90
2023-01-20T07:02:13.132Z,37.83
2023-01-20T07:04:43.556Z,43.30
2023-01-20T07:07:13.907Z,37.40
2023-01-20T07:09:42.417Z,38.35
2023-01-20T07:12:10.924Z,40.13
2023-01-20T07:14:39.669Z,37.63
2023-01-20T07:17:13.179Z,38.10
2023-01-20T07:19:43.273Z,37.17
2023-01-20T07:22:11.555Z,35.08
2023-01-20T07:24:40.254Z,38.60
2023-01-20T07:27:08.798Z,37.55
2023-01-20T07:29:38.127Z,37.42
2023-01-20T07:32:07.031Z,40.30
2023-01-20T07:34:35.700Z,42.55
2023-01-20T07:37:05.433Z,34.15
2023-01-20T07:39:33.983Z,43.65
2023-01-20T07:42:05.541Z,36.00
2023-01-20T07:44:34.265Z,40.65
2023-01-20T07:47:02.906Z,31.67
2023-01-20T07:49:31.345Z,39.28
2023-01-20T07:51:59.773Z,33.85
2023-01-20T07:54:29.561Z,37.03
2023-01-20T07:56:57.785Z,35.33
2023-01-20T07:59:26.769Z,39.80
2023-01-20T08:01:55.156Z,40.25
2023-01-20T08:04:23.390Z,34.88
2023-01-20T08:06:51.997Z,38.15
2023-01-20T08:09:20.389Z,36.47
2023-01-20T08:11:50.441Z,33.30
2023-01-20T08:14:18.686Z,33.80
2023-01-20T08:16:47.025Z,36.03
2023-01-20T08:19:15.295Z,31.83
2023-01-20T08:21:43.642Z,30.17
2023-01-20T08:24:12.169Z,31.88
2023-01-20T08:26:40.799Z,28.33
2023-01-20T08:29:11.429Z,33.05
2023-01-20T08:31:41.287Z,27.20
2023-01-20T08:34:10.433Z,31.13
2023-01-20T08:36:42.093Z,30.02
2023-01-20T08:39:14.541Z,31.13
2023-01-20T08:41:45.504Z,29.63
2023-01-20T08:44:17.546Z,28.55
2023-01-20T08:46:46.970Z,30.35
2023-01-20T08:49:18.566Z,30.67
2023-01-20T08:51:47.190Z,26.88
2023-01-20T08:54:16.204Z,25.35
2023-01-20T08:56:45.196Z,31.42
2023-01-20T08:59:14.800Z,26.70
2023-01-20T09:01:43.755Z,31.48
2023-01-20T09:04:13.216Z,32.35
2023-01-20T09:06:45.104Z,27.25
2023-01-20T09:09:15.018Z,25.83
2023-01-20T09:11:45.060Z,32.03
2023-01-20T09:14:14.759Z,25.10
2023-01-20T09:16:43.406Z,25.40
2023-01-20T09:19:12.106Z,24.80
2023-01-20T09:21:40.411Z,21.83
2023-01-20T09:24:09.584Z,21.42
2023-01-20T09:26:41.061Z,25.23
2023-01-20T09:29:13.471Z,18.73
2023-01-20T09:31:46.857Z,21.42
2023-01-20T09:34:19.940Z,24.90
2023-01-20T09:36:52.546Z,23.00
2023-01-20T09:39:39.464Z,22.63
2023-01-20T09:42:43.643Z,20.73
2023-01-20T09:45:25.022Z,24.80
2023-01-20T09:48:06.848Z,19.10
2023-01-20T09:51:05.510Z,21.08
2023-01-20T09:53:52.005Z,21.90
2023-01-20T09:56:25.802Z,21.52
2023-01-20T09:59:01.955Z,23.00
2023-01-20T10:01:37.770Z,21.27
2023-01-20T10:04:15.705Z,21.55
2023-01-20T10:06:50.116Z,20.20
2023-01-20T10:09:25.999Z,18.77
2023-01-20T10:12:03.041Z,24.52
2023-01-20T10:14:36.562Z,25.23
2023-01-20T10:17:11.318Z,23.10
2023-01-20T10:19:49.354Z,22.05
2023-01-20T10:22:22.580Z,26.95
2023-01-20T10:24:56.630Z,27.35
2023-01-20T10:27:30.074Z,26.27
2023-01-20T10:30:08.983Z,36.40
2023-01-20T10:32:40.037Z,28.58
2023-01-20T10:35:18.697Z,28.50
2023-01-20T10:37:48.084Z,32.20
2023-01-20T10:40:27.024Z,27.13
2023-01-20T10:43:00.504Z,28.55
2023-01-20T10:45:42.056Z,26.38
2023-01-20T10:48:22.778Z,24.55
2023-01-20T10:51:01.305Z,28.55
2023-01-20T10:53:42.540Z,24.63
2023-01-20T10:56:36.358Z,23.38
2023-01-20T10:59:14.105Z,26.92
2023-01-20T11:01:46.707Z,26.05
2023-01-20T11:06:53.795Z,22.00
2023-01-20T11:09:35.344Z,22.13
2023-01-20T11:12:05.647Z,25.13
2023-01-20T11:14:34.877Z,24.05
2023-01-20T11:17:07.469Z,21.40
2023-01-20T11:19:52.618Z,32.67
2023-01-20T11:22:31.155Z,21.45
2023-01-20T11:25:04.168Z,18.70
2023-01-20T11:27:44.507Z,27.88
2023-01-20T11:30:28.337Z,23.83
2023-01-20T11:33:18.069Z,26.10
2023-01-20T11:36:01.235Z,25.55
2023-01-20T11:38:33.167Z,31.00
2023-01-20T11:41:01.405Z,29.50
2023-01-20T11:43:38.354Z,27.40
2023-01-20T11:46:22.545Z,28.60
2023-01-20T11:48:51.930Z,23.35
2023-01-20T11:51:25.235Z,22.60
2023-01-20T11:54:10.053Z,30.67
2023-01-20T11:56:43.398Z,29.42
2023-01-20T11:59:25.263Z,23.33
2023-01-20T12:02:02.983Z,48.58
2023-01-20T12:04:50.929Z,28.25
2023-01-20T12:07:28.036Z,25.83
2023-01-20T12:10:05.995Z,25.00
2023-01-20T12:12:41.577Z,30.77
2023-01-20T12:15:18.021Z,32.47
2023-01-20T12:17:55.101Z,28.17
2023-01-20T12:20:31.948Z,29.85
2023-01-20T12:23:21.103Z,29.52
2023-01-20T12:25:58.820Z,25.88
2023-01-20T12:28:35.452Z,27.33
2023-01-20T12:31:05.562Z,21.65
2023-01-20T12:33:37.260Z,27.70
2023-01-20T12:36:56.828Z,34.13
2023-01-20T12:39:42.855Z,24.38
2023-01-20T12:43:02.854Z,23.50
2023-01-20T12:45:53.317Z,21.15
2023-01-20T12:48:35.181Z,21.70
2023-01-20T12:51:21.477Z,30.10
2023-01-20T12:54:30.529Z,27.75
2023-01-20T12:57:22.123Z,21.60
2023-01-20T13:03:09.432Z,30.52
2023-01-20T13:06:13.635Z,21.85
2023-01-20T13:08:51.310Z,31.52
2023-01-20T13:11:39.129Z,30.90
2023-01-20T13:14:15.592Z,24.10
2023-01-20T13:16:56.959Z,26.48
2023-01-20T13:19:31.125Z,31.50
2023-01-20T13:22:14.902Z,31.58
2023-01-20T13:24:47.095Z,34.92
2023-01-20T13:27:19.333Z,30.52
2023-01-20T13:29:56.693Z,25.42
2023-01-20T13:32:36.473Z,25.75
2023-01-20T13:35:45.789Z,25.17
2023-01-20T13:38:24.191Z,23.83
2023-01-20T13:40:57.037Z,20.38
2023-01-20T13:43:48.449Z,20.98
2023-01-20T13:46:51.365Z,19.50
2023-01-20T13:49:48.685Z,22.25
2023-01-20T13:52:17.367Z,18.67
2023-01-20T13:54:48.980Z,22.90
2023-01-20T13:57:38.017Z,22.63
2023-01-20T14:00:18.546Z,19.70
2023-01-20T14:02:49.119Z,21.83
2023-01-20T14:05:32.961Z,18.05
2023-01-20T14:08:01.822Z,19.55
2023-01-20T14:10:30.547Z,17.55
2023-01-20T14:12:59.082Z,17.65
2023-01-20T14:15:40.094Z,28.05
2023-01-20T14:18:18.829Z,22.20
2023-01-20T14:21:03.684Z,21.48
2023-01-20T14:23:36.936Z,23.10
2023-01-20T14:26:13.008Z,23.80
2023-01-20T14:28:50.926Z,29.73
2023-01-20T14:31:40.479Z,30.50
2023-01-20T14:34:28.141Z,25.52
2023-01-20T14:37:02.379Z,20.23
2023-01-20T14:39:31.996Z,22.98
2023-01-20T14:42:02.479Z,24.58
2023-01-20T14:44:33.814Z,32.83
2023-01-20T14:47:04.723Z,20.85
2023-01-20T14:49:39.590Z,24.88
2023-01-20T14:52:13.857Z,23.67
2023-01-20T14:54:45.908Z,21.25
2023-01-20T14:57:36.286Z,23.02
2023-01-20T15:00:22.959Z,18.33
2023-01-20T15:03:09.468Z,19.92
2023-01-20T15:05:41.908Z,24.80
2023-01-20T15:08:26.834Z,17.77
2023-01-20T15:11:21.951Z,20.02
2023-01-20T15:14:12.389Z,23.20
2023-01-20T15:16:51.908Z,20.10
2023-01-20T15:19:36.184Z,25.38
2023-01-20T15:22:23.543Z,30.90
2023-01-20T15:24:54.893Z,24.10
2023-01-20T15:27:31.348Z,29.30
2023-01-20T15:30:21.403Z,35.38
2023-01-20T15:32:51.188Z,22.90
2023-01-20T15:35:22.946Z,30.40
2023-01-20T15:37:52.245Z,25.97
2023-01-20T15:40:25.003Z,23.77
2023-01-20T15:45:22.132Z,24.38
2023-01-20T15:47:50.404Z,22.63
2023-01-20T15:50:23.033Z,25.92
2023-01-20T15:55:22.266Z,25.55
2023-01-20T15:57:53.517Z,26.27
2023-01-20T16:00:25.024Z,31.90
2023-01-20T16:02:53.790Z,40.15
2023-01-20T16:05:22.640Z,46.97
2023-01-20T16:07:51.629Z,98.63
2023-01-20T16:10:22.036Z,99.78
2023-01-20T16:12:51.275Z,70.97
2023-01-20T16:15:20.414Z,67.63
2023-01-20T16:17:51.189Z,47.35
2023-01-20T16:20:23.068Z,49.58
2023-01-20T16:22:52.137Z,41.55
2023-01-20T16:25:22.431Z,36.53
2023-01-20T16:27:51.223Z,49.20
2023-01-20T16:30:23.268Z,74.38
2023-01-20T16:32:52.073Z,40.33
2023-01-20T16:35:23.708Z,38.42
2023-01-20T16:37:53.150Z,24.65
2023-01-20T16:40:24.747Z,34.95
2023-01-20T16:42:56.156Z,40.22
2023-01-20T16:45:30.444Z,40.45
2023-01-20T16:47:59.315Z,40.17
2023-01-20T16:50:28.361Z,38.25
2023-01-20T16:52:57.632Z,42.20
2023-01-20T16:55:27.320Z,41.90
2023-01-20T16:57:55.777Z,43.63
2023-01-20T17:00:24.406Z,51.05
2023-01-20T17:02:53.316Z,39.88
2023-01-20T17:05:25.506Z,52.00
2023-01-20T17:07:56.758Z,65.65
2023-01-20T17:10:29.459Z,56.03
2023-01-20T17:15:27.099Z,40.70
2023-01-20T17:17:59.783Z,44.00
2023-01-20T17:22:56.928Z,52.08
2023-01-20T17:25:27.616Z,63.47
2023-01-20T17:27:56.137Z,50.72
2023-01-20T17:30:26.626Z,53.85
2023-01-20T17:32:55.461Z,49.88
2023-01-20T17:35:24.192Z,50.78
2023-01-20T17:37:52.793Z,51.42
2023-01-20T17:40:21.161Z,47.88
2023-01-20T17:42:53.913Z,45.03
2023-01-20T17:45:22.822Z,41.53
2023-01-20T17:47:52.723Z,51.22
2023-01-20T17:50:21.309Z,42.97
2023-01-20T17:52:49.915Z,32.70
2023-01-20T17:55:18.539Z,35.58
2023-01-20T17:57:47.832Z,33.38
2023-01-20T18:00:20.336Z,39.17
2023-01-20T18:02:48.555Z,31.63
2023-01-20T18:05:17.158Z,32.45
2023-01-20T18:07:45.528Z,31.90
2023-01-20T18:10:14.623Z,31.92
2023-01-20T18:12:43.135Z,31.52
2023-01-20T18:15:12.355Z,36.60
2023-01-20T18:17:43.320Z,39.47
2023-01-20T18:20:15.167Z,36.80
2023-01-20T18:22:49.366Z,33.58
2023-01-20T18:25:18.075Z,39.20
2023-01-20T18:27:46.626Z,40.67
2023-01-20T18:30:16.431Z,36.45
2023-01-20T18:32:46.811Z,33.20
2023-01-20T18:35:15.953Z,37.33
2023-01-20T18:37:47.877Z,44.13
2023-01-20T18:40:16.500Z,47.67
2023-01-20T18:42:45.300Z,45.47
2023-01-20T18:45:13.605Z,43.03
2023-01-20T18:47:42.048Z,43.17
2023-01-20T18:50:13.024Z,48.30
2023-01-20T18:52:41.374Z,39.65
2023-01-20T18:55:10.865Z,46.45
2023-01-20T18:57:39.566Z,53.67
2023-01-20T19:00:10.282Z,51.00
2023-01-20T19:02:38.776Z,48.80
2023-01-20T19:05:09.318Z,50.83
2023-01-20T19:07:39.148Z,53.92
2023-01-20T19:10:08.151Z,56.53
2023-01-20T19:12:36.541Z,50.53
2023-01-20T19:15:05.924Z,51.10
2023-01-20T19:17:34.220Z,56.45
2023-01-20T19:20:04.389Z,51.53
2023-01-20T19:22:32.579Z,49.80
2023-01-20T19:25:02.383Z,48.40
2023-01-20T19:27:32.615Z,46.15
2023-01-20T19:30:01.041Z,39.13
2023-01-20T19:32:29.435Z,39.13
2023-01-20T19:34:58.966Z,40.80
2023-01-20T19:37:28.348Z,41.72
2023-01-20T19:39:57.073Z,38.17
2023-01-20T19:42:27.292Z,39.22
2023-01-20T19:44:55.715Z,44.88
2023-01-20T19:47:24.298Z,43.15
2023-01-20T19:49:52.712Z,48.17
2023-01-20T19:52:21.037Z,47.55
2023-01-20T19:54:51.718Z,39.65
2023-01-20T19:57:20.278Z,43.58
2023-01-20T19:59:51.060Z,35.55
2023-01-20T20:02:19.772Z,37.72
2023-01-20T20:04:48.684Z,37.60
2023-01-20T20:07:17.141Z,35.47
2023-01-20T20:09:45.446Z,37.20
2023-01-20T20:12:13.942Z,36.05
2023-01-20T20:14:42.235Z,47.00
2023-01-20T20:17:12.112Z,53.88
2023-01-20T20:19:40.968Z,45.33
2023-01-20T20:22:09.427Z,45.83
2023-01-20T20:24:37.722Z,47.80
2023-01-20T20:27:05.929Z,42.25
2023-01-20T20:29:34.338Z,44.25
2023-01-20T20:32:03.189Z,43.22
2023-01-20T20:34:33.421Z,45.17
2023-01-20T20:37:02.843Z,45.35
2023-01-20T20:39:31.110Z,50.97
2023-01-20T20:42:00.108Z,54.90
2023-01-20T20:44:28.700Z,51.83
2023-01-20T20:46:57.894Z,49.70
2023-01-20T20:49:26.602Z,56.38
2023-01-20T20:51:56.338Z,56.67
2023-01-20T20:54:24.806Z,56.25
2023-01-20T20:56:53.547Z,61.28
2023-01-20T20:59:25.170Z,57.42
2023-01-20T21:01:54.703Z,51.13
2023-01-20T21:04:23.242Z,57.65
2023-01-20T21:06:51.746Z,68.45
2023-01-20T21:09:21.834Z,67.40
2023-01-20T21:11:50.060Z,68.15
2023-01-20T21:14:21.208Z,57.70
2023-01-20T21:16:50.609Z,55.80
2023-01-20T21:19:18.849Z,62.70
2023-01-20T21:21:47.248Z,61.72
2023-01-20T21:24:15.483Z,60.22
2023-01-20T21:26:45.418Z,64.55
2023-01-20T21:29:14.668Z,68.50
2023-01-20T21:31:43.293Z,65.20
2023-01-20T21:34:15.335Z,61.17
2023-01-20T21:36:43.688Z,69.85
2023-01-20T21:39:16.168Z,58.42
2023-01-20T21:41:46.721Z,55.92
2023-01-20T21:44:32.750Z,50.30
2023-01-20T21:47:03.238Z,51.22
2023-01-20T21:49:49.666Z,49.95
2023-01-20T21:52:37.918Z,50.80
2023-01-20T21:55:08.731Z,55.67
2023-01-20T21:57:39.691Z,57.50
2023-01-20T22:00:10.657Z,64.55
2023-01-20T22:02:44.809Z,55.80
2023-01-20T22:05:18.781Z,51.05
2023-01-20T22:07:48.382Z,51.38
2023-01-20T22:10:18.058Z,57.65
2023-01-20T22:12:48.255Z,56.00
2023-01-20T22:15:16.894Z,65.45
2023-01-20T22:17:45.321Z,52.67
2023-01-20T22:20:14.367Z,53.67
2023-01-20T22:22:43.272Z,57.08
2023-01-20T22:25:11.797Z,56.20
2023-01-20T22:27:40.151Z,54.40
2023-01-20T22:30:12.081Z,56.42
2023-01-20T22:32:40.602Z,56.90
2023-01-20T22:35:12.644Z,63.35
2023-01-20T22:37:41.069Z,61.80
2023-01-20T22:40:11.368Z,67.55
2023-01-20T22:42:39.827Z,73.65
2023-01-20T22:45:11.977Z,68.20
2023-01-20T22:47:40.568Z,71.43
2023-01-20T22:50:10.963Z,82.25
2023-01-20T22:52:39.202Z,76.90
2023-01-20T22:55:08.798Z,277.50
2023-01-20T22:57:37.105Z,69.88
2023-01-20T23:00:08.477Z,67.68
2023-01-20T23:02:38.835Z,61.50
2023-01-20T23:05:07.679Z,60.13
2023-01-20T23:07:37.606Z,86.35
2023-01-20T23:10:07.304Z,70.22
2023-01-20T23:12:35.747Z,68.20
2023-01-20T23:15:04.616Z,61.45
2023-01-20T23:17:33.703Z,63.78
2023-01-20T23:20:03.601Z,61.38
2023-01-20T23:22:32.073Z,59.65
2023-01-20T23:25:00.444Z,56.63
2023-01-20T23:27:29.174Z,58.65
2023-01-20T23:29:57.827Z,53.85
2023-01-20T23:32:26.417Z,51.33
2023-01-20T23:34:55.054Z,57.90
2023-01-20T23:37:25.124Z,63.70
2023-01-20T23:39:53.423Z,58.75
2023-01-20T23:42:22.216Z,55.70
2023-01-20T23:44:50.759Z,60.55
2023-01-20T23:47:19.103Z,62.28
2023-01-20T23:49:47.481Z,61.65
2023-01-20T23:52:16.138Z,57.33
2023-01-20T23:54:45.924Z,68.78
2023-01-20T23:57:14.807Z,68.70
2023-01-20T23:59:43.375Z,69.00
